x

Neah Bay, - 6nm North Of Cape Flattery, Wa (traffic Separation Lighted Buoy) (46087) Wave Buoy

10:50am - Tue 27th Jan 2015 All times are PST. -8 hours from GMT.

  • Sig Wave height 6.2ft
  • Swell Direction
  • Peak Period 11s
  • Average Period 8s
  • Wind
    13mph, 18mph gusts
  • Sea Temp 51°f
  • Air Temp 50°f
  • Sea Pressure 1018.8mb
  • Neah Bay, - 6nm North Of Cape Flattery, Wa     (traffic Separation Lighted Buoy)
  • Neah Bay, - 6nm North Of Cape Flattery, Wa     (traffic Separation Lighted Buoy)

More Historic Weather Station data

Upgrade to MSW Pro to gain access to the past 30 days of data for over 8000 Wavebouys and Weather Stations around the globe.

Join Pro

Comparision Forecast

View Surf forecast
   
Tue 01/27 10:50am 6ft 11s 8s 13 18 mph 1018.8mb 51f 50f
10:20am  -   -   -  16 20 mph 1018.3mb 50f 49f
9:50am 6.5ft 14s 8s 18 20 mph 1017.7mb 50f 49f
9:20am  -   -   -  18 20 mph 1017.4mb 50f 49f
8:50am 6ft 14s 8s 18 20 mph 1016.9mb 50f 49f
8:20am  -   -   -  16 20 mph 1016.5mb 50f 48f
7:50am 6ft 10s 8s 16 18 mph 1016.2mb 50f 48f
7:20am  -   -   -  9 13 mph 1016mb 50f 48f
6:50am 6.5ft 10s 8s 9 11 mph 1015.8mb 50f 49f
6:20am  -   -   -  9 11 mph 1015.5mb 50f 49f
5:50am 6ft 11s 8s 2 4 mph 1015.3mb 50f 49f
5:20am  -   -   -  2 4 mph 1015.1mb 50f 49f
4:50am 6ft 11s 8s 7 9 mph 1015mb 50f 49f
4:20am  -   -   -  7 9 mph 1014.9mb 50f 49f
3:50am 6.5ft 14s 8s 9 11 mph 1014.9mb 50f 50f
3:20am  -   -   -  13 16 mph 1014.8mb 50f 50f
2:50am 6ft 11s 8s 11 16 mph 1014.8mb 50f 50f
2:20am  -   -   -  13 16 mph 1014.7mb 50f 49f
1:50am 5.5ft 12s 8s 13 18 mph 1014.7mb 50f 50f
1:20am  -   -   -  16 18 mph 1014.7mb 50f 50f
12:50am 7ft 13s 8s 13 16 mph 1014.9mb 50f 50f
12:20am  -   -   -  16 18 mph 1014.9mb 50f 50f
Mon 01/26 11:50pm 7ft 13s 8s 13 18 mph 1014.8mb 50f 50f
11:20pm  -   -   -  11 16 mph 1014.6mb 50f 51f
10:50pm 6.5ft 13s 8s 13 18 mph 1014.3mb 50f 51f
10:20pm  -   -   -  11 16 mph 1014mb 50f 51f
9:50pm 7ft 14s 8s 11 16 mph 1014mb 50f 51f
9:20pm  -   -   -  11 16 mph 1014.1mb 50f 51f
8:50pm 7.5ft 13s 8s 13 18 mph 1013.8mb 50f 51f
8:20pm  -   -   -  16 18 mph 1013.6mb 50f 50f
7:50pm 7ft 10s 8s 16 20 mph 1013.4mb 50f 51f
7:20pm  -   -   -  9 11 mph 1013.5mb 50f 51f
6:50pm 7ft 11s 8s 2 4 mph 1013.2mb 50f 50f
6:20pm  -   -   -  4 9 mph 1013.1mb 50f 50f
5:50pm 8ft 11s 8s 7
mph
1013.3mb 50f 50f
5:20pm  -   -   -  9
mph
1013.4mb 50f 50f
4:50pm 8ft 15s 8s 9 11 mph 1013.3mb 50f 50f
4:20pm  -   -   -  13 16 mph 1013.4mb 50f 51f
3:50pm 8ft 12s 8s 18 22 mph 1013.3mb 50f 51f
3:20pm  -   -   -  11 18 mph 1013.4mb 50f 51f
2:50pm 7.5ft 11s 9s 4 11 mph 1013.3mb 50f 50f
2:20pm  -   -   -  7
mph
1013.1mb 50f 47f
1:50pm 7.5ft 11s 9s 11 16 mph 1012.9mb 50f 47f
1:20pm  -   -   -  16 18 mph 1012.5mb 50f 47f
12:50pm 7.5ft 11s 9s 18 22 mph 1012.3mb 50f 47f
12:20pm  -   -   -  16 20 mph 1012.3mb 50f 47f
11:50am 7ft 12s 9s 13 16 mph 1013.1mb 50f 47f
11:20am  -   -   -  13 18 mph 1012.9mb 50f 48f
10:50am 7ft 14s 9s 16 18 mph 1012.9mb 50f 49f
10:20am  -   -   -  13 18 mph 1012.9mb 50f 50f
9:50am 7ft 12s 9s 16 20 mph 1012.7mb 50f 50f
9:20am  -   -   -  18 20 mph 1012.7mb 50f 50f
8:50am 8ft 11s 9s 18 22 mph 1011.9mb 50f 50f
8:20am  -   -   -  16 18 mph 1012.1mb 50f 50f
7:50am 7.5ft 13s 9s 16 18 mph 1011.2mb 50f 50f
7:20am  -   -   -  13 18 mph 1011.2mb 50f 50f
6:50am 8.5ft 13s 9s 13 20 mph 1011.4mb 50f 51f
6:20am  -   -   -  16 20 mph 1012.1mb 50f 49f
5:50am 8ft 14s 8s 18 22 mph 1011.7mb 50f 50f
5:20am  -   -   -  22 27 mph 1011.4mb 50f 50f
4:50am 8ft 13s 9s 20 25 mph 1012mb 50f 50f
4:20am  -   -   -  20 25 mph 1012mb 50f 50f
3:50am 7.5ft 14s 9s 18 22 mph 1012.4mb 50f 50f
3:20am  -   -   -  20 25 mph 1012mb 50f 50f
2:50am 8ft 11s 9s 18 25 mph 1012.3mb 50f 50f
2:20am  -   -   -  20 25 mph 1012.4mb 50f 50f
1:50am 8ft 11s 9s 20 25 mph 1012.9mb 50f 50f
1:20am  -   -   -  20 27 mph 1013.1mb 50f 50f
12:50am 8ft 12s 9s 20 25 mph 1013.3mb 50f 50f
12:20am  -   -   -  22 27 mph 1013.5mb 50f 51f
Sun 01/25 11:50pm 8ft 11s 9s 22 27 mph 1013.8mb 50f 51f
11:20pm  -   -   -  22 29 mph 1014.1mb 50f 51f
10:50pm 8ft 12s 9s 25 29 mph 1014.2mb 50f 51f
10:20pm  -   -   -  20 25 mph 1014.7mb 50f 50f
9:50pm 8ft 11s 8s 22 27 mph 1015.1mb 50f 49f
9:20pm  -   -   -  20 25 mph 1015.3mb 50f 50f
8:50pm 8ft 11s 9s 20 27 mph 1015.5mb 50f 50f
8:20pm  -   -   -  20 27 mph 1015.8mb 50f 51f
7:50pm 9ft 12s 9s 18 25 mph 1016.3mb 50f 51f
7:20pm  -   -   -  18 25 mph 1016.6mb 50f 51f
6:50pm 9.5ft 11s 9s 18 22 mph 1016.7mb 50f 51f
6:20pm  -   -   -  18 22 mph 1017.1mb 50f 51f
5:50pm 10ft 13s 9s 18 25 mph 1017.2mb 50f 51f
5:20pm  -   -   -  16 20 mph 1017.6mb 50f 51f
4:50pm 11ft 13s 9s 18 25 mph 1017.2mb 50f 51f
4:20pm  -   -   -  16 22 mph 1017.6mb 50f 51f
3:50pm 11ft 13s 9s 16 22 mph 1017.5mb 50f 51f
3:20pm  -   -   -  16 20 mph 1017.9mb 50f 51f
2:50pm 10ft 12s 9s 13 18 mph 1018.1mb 50f 51f
2:20pm  -   -   -  11 16 mph 1018.8mb 51f 51f
1:50pm 9.5ft 13s 10s 11 16 mph 1019.1mb 51f 50f
1:20pm  -   -   -  11 16 mph 1019.6mb 51f 50f
12:50pm 9ft 11s 10s 9 13 mph 1020.3mb 50f 50f
12:20pm  -   -   -  9 13 mph 1020.6mb 50f 50f
11:50am 7.5ft 11s 10s 9 13 mph 1020.8mb 50f 50f
11:20am  -   -   -  9 11 mph 1021.3mb 50f 50f
10:50am 10ft 11s 10s 7 11 mph 1021.4mb 50f 51f
10:20am  -   -   -  9 11 mph 1021.2mb 50f 51f
9:50am 9ft 11s 10s 9 11 mph 1021.2mb 50f 51f
9:20am  -   -   -  7 9 mph 1020.9mb 50f 51f
8:50am 9ft 12s 10s 7 9 mph 1020.9mb 50f 50f
8:20am  -   -   -  7 11 mph 1020.7mb 50f 50f
7:50am 8ft 14s 9s 7 11 mph 1020.6mb 50f 50f
7:20am  -   -   -  7 9 mph 1021mb 50f 50f
6:50am 9ft 11s 9s 7 9 mph 1021.1mb 50f 51f
6:20am  -   -   -  4 9 mph 1021.3mb 50f 51f
5:50am 9ft 14s 9s 4 7 mph 1021.5mb 50f 51f
5:20am  -   -   -  7
mph
1021.8mb 50f 51f
4:50am 9ft 11s 8s 7 11 mph 1022mb 50f 51f
4:20am  -   -   -  9 11 mph 1022.2mb 50f 51f
3:50am 8ft 11s 8s 7 9 mph 1022.4mb 50f 51f
3:20am  -   -   -  7 9 mph 1022.6mb 50f 51f
2:50am 8.5ft 13s 8s 11 16 mph 1022.6mb 50f 51f
2:20am  -   -   -  11 13 mph 1022.8mb 50f 51f
1:50am 8.5ft 11s 9s 11 13 mph 1022mb 50f 51f
1:20am  -   -   -  11 13 mph 1022.1mb 50f 51f
12:50am 8ft 12s 9s 11 13 mph 1022.8mb 50f 51f
12:20am  -   -   -  9 13 mph 1023.1mb 50f 51f
Sat 01/24 11:50pm 8.5ft 12s 9s 11
mph
1022.8mb 50f 51f
11:20pm  -   -   -  11 13 mph 1022.6mb 50f 51f
10:50pm 9ft 12s 10s 16 18 mph 1023mb 50f 52f
10:20pm  -   -   -  13 16 mph 1022.8mb 50f 51f
9:50pm 9ft 14s 10s 13 18 mph 1022.8mb 50f 51f
9:20pm  -   -   -  16 20 mph 1022mb 50f 51f
8:50pm 8.5ft 13s 9s 16 20 mph 1022.5mb 50f 51f
8:20pm  -   -   -  16 22 mph 1022.2mb 50f 51f
7:50pm 8ft 14s 9s 18 20 mph 1022.2mb 50f 51f
7:20pm  -   -   -  18 20 mph 1022.6mb 50f 52f
6:50pm 9ft 14s 9s 18 22 mph 1022.3mb 50f 52f
6:20pm  -   -   -  18 22 mph 1022.9mb 50f 51f
5:50pm 9.5ft 14s 9s 18 22 mph 1022.6mb 50f 51f
5:20pm  -   -   -  16 20 mph 1022.9mb 50f 52f
4:50pm 9ft 13s 8s 16 18 mph 1022.7mb 50f 52f
4:20pm  -   -   -  16 18 mph 1022.6mb 50f 52f
3:50pm 9ft 13s 8s 16 20 mph 1022.5mb 50f 52f
3:20pm  -   -   -  18 20 mph 1022.8mb 50f 52f
2:50pm 10.5ft 10s 9s 18 20 mph 1023mb 50f 52f
2:20pm  -   -   -  16 20 mph 1023.1mb 50f 52f
1:50pm 8.5ft 15s 9s 13 16 mph 1023mb 50f 52f
1:20pm  -   -   -  18 22 mph 1023mb 50f 52f
12:50pm 7.5ft 14s 9s 18 22 mph 1023.7mb 50f 52f
12:20pm  -   -   -  18 22 mph 1023.8mb 50f 52f
11:50am 8.5ft 15s 10s 7 9 mph 1024.2mb 50f 51f
11:20am  -   -   -  7 9 mph 1024.4mb 50f 51f
10:50am 10ft 12s 10s 2 4 mph 1024.4mb 50f 52f
10:20am  -   -   -  2 7 mph 1024.3mb 50f 51f
9:50am 8ft 11s 10s 2 4 mph 1024.2mb 50f 51f
9:20am  -   -   -  2 4 mph 1024.1mb 50f 51f
8:50am 8ft 15s 10s 2 4 mph 1024.1mb 50f 51f
8:20am  -   -   -  2 7 mph 1024.4mb 50f 52f
7:50am 8.5ft 15s 10s 2 7 mph 1024.2mb 50f 52f
7:20am  -   -   -  4 7 mph 1024.5mb 50f 51f
6:50am 9ft 14s 9s 2 4 mph 1024.5mb 50f 51f
6:20am  -   -   -  7 11 mph 1023.6mb 50f 51f
5:50am 8ft 15s 9s 7 9 mph 1024mb 50f 51f
5:20am  -   -   -  7 9 mph 1024.6mb 50f 51f
4:50am 10ft 14s 9s 9 11 mph 1024.4mb 50f 52f
4:20am  -   -   -  9 11 mph 1024.3mb 50f 51f
3:50am 9.5ft 15s 8s 7 11 mph 1024.7mb 50f 51f
3:20am  -   -   -  9 11 mph 1024.8mb 50f 51f
2:50am 10.5ft 14s 8s 7 9 mph 1024.9mb 50f 51f
2:20am  -   -   -  9 11 mph 1025.2mb 50f 51f
1:50am 10ft 11s 9s 13 16 mph 1024.9mb 50f 51f
1:20am  -   -   -  13 16 mph 1024.6mb 50f 51f
12:50am 9.5ft 11s 9s 11 13 mph 1024.1mb 50f 51f
12:20am  -   -   -  11 13 mph 1024.3mb 50f 51f
Fri 01/23 11:50pm 9.5ft 16s 9s 13 16 mph 1024.1mb 50f 51f
11:20pm  -   -   -  11 13 mph 1023.9mb 50f 51f
10:50pm 9ft 17s 9s 16 18 mph 1023.7mb 50f 51f
10:20pm  -   -   -  16 20 mph 1023.2mb 50f 51f
9:50pm 10ft 12s 9s 18 22 mph 1023.2mb 50f 51f
9:20pm  -   -   -  20 25 mph 1022.6mb 50f 51f
8:50pm 9ft 16s 9s 18 22 mph 1022.5mb 50f 51f
8:20pm  -   -   -  18 22 mph 1022.2mb 50f 51f
7:50pm 8ft 16s 7s 18 22 mph 1022.6mb 50f 51f